createdAt,value
2019-05-25T00:02:02.086Z,16.60
2019-05-25T00:04:30.745Z,16.50
2019-05-25T00:06:59.379Z,16.40
2019-05-25T00:09:28.022Z,16.50
2019-05-25T00:11:56.550Z,16.50
2019-05-25T00:14:25.439Z,16.40
2019-05-25T00:16:54.123Z,16.40
2019-05-25T00:19:22.709Z,16.50
2019-05-25T00:21:51.446Z,16.40
2019-05-25T00:24:20.074Z,16.50
2019-05-25T00:26:48.718Z,16.40
2019-05-25T00:29:17.551Z,16.50
2019-05-25T00:31:46.141Z,16.40
2019-05-25T00:34:14.702Z,16.30
2019-05-25T00:36:43.308Z,16.20
2019-05-25T00:39:11.969Z,16.10
2019-05-25T00:41:40.758Z,16.10
2019-05-25T00:44:09.267Z,16.10
2019-05-25T00:46:37.811Z,16.10
2019-05-25T00:49:06.440Z,16.10
2019-05-25T00:51:35.118Z,16.20
2019-05-25T00:54:03.859Z,16.10
2019-05-25T00:56:32.728Z,16.10
2019-05-25T00:59:01.234Z,16.00
2019-05-25T01:01:29.907Z,16.00
2019-05-25T01:03:58.482Z,16.00
2019-05-25T01:06:27.098Z,16.00
2019-05-25T01:08:55.693Z,15.90
2019-05-25T01:11:24.306Z,15.90
2019-05-25T01:13:53.067Z,16.00
2019-05-25T01:16:21.535Z,15.90
2019-05-25T01:18:50.440Z,16.00
2019-05-25T01:21:19.051Z,16.00
2019-05-25T01:24:06.962Z,16.00
2019-05-25T01:26:35.561Z,15.90
2019-05-25T01:29:04.178Z,15.90
2019-05-25T01:31:32.786Z,15.90
2019-05-25T01:34:01.389Z,15.90
2019-05-25T01:36:29.998Z,15.90
2019-05-25T01:38:58.698Z,15.90
2019-05-25T01:41:27.233Z,16.00
2019-05-25T01:43:55.820Z,15.80
2019-05-25T01:46:24.389Z,15.80
2019-05-25T01:49:12.335Z,15.80
2019-05-25T01:51:40.871Z,15.80
2019-05-25T01:54:09.454Z,15.80
2019-05-25T01:56:57.352Z,15.80
2019-05-25T01:59:25.945Z,15.80
2019-05-25T02:01:54.499Z,15.80
2019-05-25T02:04:23.214Z,15.90
2019-05-25T02:06:51.766Z,15.90
2019-05-25T02:09:20.351Z,15.90
2019-05-25T02:12:08.292Z,15.80
2019-05-25T02:14:56.202Z,15.90
2019-05-25T02:17:24.865Z,15.90
2019-05-25T02:19:53.415Z,15.90
2019-05-25T02:22:22.787Z,15.90
2019-05-25T02:24:51.571Z,15.80
2019-05-25T02:27:20.466Z,15.80
2019-05-25T02:29:49.084Z,15.90
2019-05-25T02:32:17.614Z,15.80
2019-05-25T02:34:46.231Z,15.70
2019-05-25T02:37:14.890Z,15.60
2019-05-25T02:39:43.450Z,15.60
2019-05-25T02:42:12.173Z,15.60
2019-05-25T02:44:40.799Z,15.50
2019-05-25T02:47:09.388Z,15.60
2019-05-25T02:49:37.941Z,15.50
2019-05-25T02:52:06.653Z,15.50
2019-05-25T02:54:35.314Z,15.50
2019-05-25T02:57:04.208Z,15.40
2019-05-25T02:59:32.850Z,15.50
2019-05-25T03:02:01.637Z,15.50
2019-05-25T03:04:30.189Z,15.50
2019-05-25T03:06:59.001Z,15.40
2019-05-25T03:09:30.162Z,15.40
2019-05-25T03:11:59.874Z,15.40
2019-05-25T03:14:28.517Z,15.40
2019-05-25T03:16:57.102Z,15.40
2019-05-25T03:19:25.639Z,15.40
2019-05-25T03:21:54.518Z,15.50
2019-05-25T03:24:23.102Z,15.40
2019-05-25T03:26:51.690Z,15.50
2019-05-25T03:29:20.251Z,15.40
2019-05-25T03:31:48.864Z,15.50
2019-05-25T03:34:17.543Z,15.50
2019-05-25T03:36:46.265Z,15.40
2019-05-25T03:39:14.824Z,15.50
2019-05-25T03:41:43.477Z,15.50
2019-05-25T03:44:12.026Z,15.50
2019-05-25T03:46:40.651Z,15.60
2019-05-25T03:49:09.615Z,15.50
2019-05-25T03:51:38.218Z,15.50
2019-05-25T03:54:06.802Z,15.50
2019-05-25T03:56:35.577Z,15.50
2019-05-25T03:59:04.188Z,15.50
2019-05-25T04:01:32.790Z,15.40
2019-05-25T04:04:01.392Z,15.40
2019-05-25T04:06:30.253Z,15.50
2019-05-25T04:08:58.858Z,15.50
2019-05-25T04:11:27.564Z,15.60
2019-05-25T04:13:56.230Z,15.60
2019-05-25T04:16:24.774Z,15.60
2019-05-25T04:18:53.287Z,15.50
2019-05-25T04:21:21.874Z,15.40
2019-05-25T04:23:50.525Z,15.40
2019-05-25T04:26:22.438Z,15.30
2019-05-25T04:28:49.575Z,15.40
2019-05-25T04:31:18.191Z,15.40
2019-05-25T04:33:46.798Z,15.50
2019-05-25T04:36:15.376Z,15.50
2019-05-25T04:38:43.994Z,15.60
2019-05-25T04:41:12.770Z,15.60
2019-05-25T04:43:41.635Z,15.60
2019-05-25T04:46:10.287Z,15.60
2019-05-25T04:48:39.009Z,15.70
2019-05-25T04:51:07.768Z,15.70
2019-05-25T04:53:36.373Z,15.70
2019-05-25T04:56:07.092Z,15.70
2019-05-25T04:58:35.608Z,15.70
2019-05-25T05:01:04.153Z,15.70
2019-05-25T05:03:32.784Z,15.70
2019-05-25T05:06:01.499Z,15.70
2019-05-25T05:08:30.073Z,15.90
2019-05-25T05:10:58.772Z,16.00
2019-05-25T05:13:27.322Z,16.00
2019-05-25T05:15:55.917Z,15.90
2019-05-25T05:18:24.450Z,16.00
2019-05-25T05:20:53.106Z,16.00
2019-05-25T05:23:21.679Z,16.00
2019-05-25T05:25:50.398Z,16.00
2019-05-25T05:28:19.007Z,16.00
2019-05-25T05:30:48.482Z,16.10
2019-05-25T05:33:17.125Z,16.10
2019-05-25T05:35:47.264Z,16.10
2019-05-25T05:38:16.905Z,16.20
2019-05-25T05:40:46.339Z,16.20
2019-05-25T05:43:16.372Z,16.10
2019-05-25T05:45:47.014Z,16.20
2019-05-25T05:48:17.596Z,16.20
2019-05-25T05:50:48.608Z,16.20
2019-05-25T05:53:18.805Z,16.20
2019-05-25T05:55:47.519Z,16.20
2019-05-25T05:58:16.101Z,16.30
2019-05-25T06:00:44.663Z,16.40
2019-05-25T06:03:13.372Z,16.50
2019-05-25T06:05:41.975Z,16.60
2019-05-25T06:08:10.657Z,16.60
2019-05-25T06:10:39.279Z,16.70
2019-05-25T06:13:09.810Z,16.60
2019-05-25T06:15:38.418Z,16.70
2019-05-25T06:18:07.079Z,16.70
2019-05-25T06:20:35.692Z,16.80
2019-05-25T06:23:07.818Z,17.00
2019-05-25T06:25:34.801Z,17.00
2019-05-25T06:28:05.252Z,17.00
2019-05-25T06:30:33.953Z,17.10
2019-05-25T06:33:02.549Z,17.20
2019-05-25T06:35:32.859Z,17.30
2019-05-25T06:38:03.372Z,17.50
2019-05-25T06:40:31.934Z,17.60
2019-05-25T06:43:00.504Z,17.70
2019-05-25T06:45:29.063Z,17.90
2019-05-25T06:47:57.662Z,18.00
2019-05-25T06:50:26.379Z,18.10
2019-05-25T06:52:57.942Z,18.20
2019-05-25T06:55:28.133Z,18.10
2019-05-25T06:57:56.609Z,18.20
2019-05-25T07:00:27.006Z,18.30
2019-05-25T07:02:55.559Z,18.40
2019-05-25T07:05:24.253Z,18.50
2019-05-25T07:07:54.683Z,18.60
2019-05-25T07:10:23.581Z,18.70
2019-05-25T07:12:52.235Z,18.80
2019-05-25T07:15:20.793Z,19.00
2019-05-25T07:17:49.435Z,19.30
2019-05-25T07:20:18.272Z,19.50
2019-05-25T07:22:46.934Z,19.70
2019-05-25T07:25:20.005Z,19.90
2019-05-25T07:27:58.689Z,20.20
2019-05-25T07:30:18.275Z,20.40
2019-05-25T07:32:47.325Z,20.50
2019-05-25T07:35:16.635Z,20.70
2019-05-25T07:37:45.477Z,20.80
2019-05-25T07:40:14.855Z,20.90
2019-05-25T07:42:43.531Z,21.10
2019-05-25T07:45:15.210Z,21.20
2019-05-25T07:47:43.819Z,21.30
2019-05-25T07:50:13.169Z,21.30
2019-05-25T07:52:41.752Z,21.40
2019-05-25T07:55:10.649Z,21.50
2019-05-25T07:57:39.516Z,21.50
2019-05-25T08:00:09.206Z,21.60
2019-05-25T08:02:37.963Z,21.60
2019-05-25T08:05:07.790Z,21.60
2019-05-25T08:07:36.569Z,21.70
2019-05-25T08:10:06.782Z,21.80
2019-05-25T08:12:35.418Z,21.90
2019-05-25T08:15:05.514Z,21.90
2019-05-25T08:17:34.439Z,21.90
2019-05-25T08:20:03.938Z,22.00
2019-05-25T08:22:32.586Z,22.00
2019-05-25T08:25:02.831Z,22.10
2019-05-25T08:27:31.386Z,22.10
2019-05-25T08:29:59.963Z,22.20
2019-05-25T08:32:28.583Z,22.10
2019-05-25T08:34:57.261Z,22.10
2019-05-25T08:37:26.151Z,22.20
2019-05-25T08:39:54.814Z,22.30
2019-05-25T08:42:23.390Z,22.30
2019-05-25T08:44:51.974Z,22.20
2019-05-25T08:47:20.645Z,22.30
2019-05-25T08:49:49.452Z,22.30
2019-05-25T08:52:37.763Z,22.30
2019-05-25T08:55:07.834Z,22.40
2019-05-25T08:57:38.167Z,22.20
2019-05-25T09:00:07.507Z,22.20
2019-05-25T09:02:36.073Z,22.20
2019-05-25T09:05:08.859Z,22.30
2019-05-25T09:07:40.850Z,22.30
2019-05-25T09:10:11.042Z,22.30
2019-05-25T09:12:39.759Z,22.30
2019-05-25T09:15:10.327Z,22.30
2019-05-25T09:17:38.944Z,22.30
2019-05-25T09:20:09.495Z,22.30
2019-05-25T09:22:38.243Z,22.30
2019-05-25T09:25:08.984Z,22.30
2019-05-25T09:27:37.501Z,22.20
2019-05-25T09:30:08.300Z,22.20
2019-05-25T09:32:37.002Z,22.20
2019-05-25T09:35:07.411Z,22.20
2019-05-25T09:37:36.108Z,22.20
2019-05-25T09:40:06.096Z,22.20
2019-05-25T09:42:34.754Z,22.20
2019-05-25T09:45:04.958Z,22.10
2019-05-25T09:47:33.614Z,22.20
2019-05-25T09:50:02.106Z,22.30
2019-05-25T09:52:30.803Z,22.30
2019-05-25T09:55:00.492Z,22.30
2019-05-25T09:57:29.177Z,22.30
2019-05-25T09:59:58.087Z,22.30
2019-05-25T10:02:27.442Z,22.30
2019-05-25T10:04:56.146Z,22.30
2019-05-25T10:07:24.946Z,22.30
2019-05-25T10:09:54.263Z,22.30
2019-05-25T10:12:22.923Z,22.30
2019-05-25T10:14:51.526Z,22.40
2019-05-25T10:17:20.123Z,22.40
2019-05-25T10:19:48.774Z,22.40
2019-05-25T10:22:17.589Z,22.40
2019-05-25T10:24:46.219Z,22.50
2019-05-25T10:27:14.921Z,22.40
2019-05-25T10:29:43.536Z,22.20
2019-05-25T10:32:12.186Z,22.30
2019-05-25T10:34:40.949Z,22.30
2019-05-25T10:37:09.623Z,22.30
2019-05-25T10:39:39.928Z,22.30
2019-05-25T10:42:08.537Z,22.30
2019-05-25T10:44:37.121Z,22.30
2019-05-25T10:47:05.759Z,22.30
2019-05-25T10:49:34.547Z,22.30
2019-05-25T10:52:03.260Z,22.40
2019-05-25T10:54:31.869Z,22.40
2019-05-25T10:57:00.602Z,22.40
2019-05-25T10:59:29.234Z,22.00
2019-05-25T11:01:57.804Z,22.40
2019-05-25T11:04:26.410Z,22.40
2019-05-25T11:06:54.988Z,22.20
2019-05-25T11:09:23.551Z,22.20
2019-05-25T11:11:52.204Z,22.20
2019-05-25T11:14:20.822Z,22.20
2019-05-25T11:16:49.610Z,22.20
2019-05-25T11:19:18.309Z,22.20
2019-05-25T11:21:46.994Z,22.30
2019-05-25T11:24:15.592Z,22.30
2019-05-25T11:26:44.286Z,22.30
2019-05-25T11:29:12.926Z,22.40
2019-05-25T11:31:41.498Z,22.40
2019-05-25T11:34:10.114Z,22.50
2019-05-25T11:36:38.768Z,22.50
2019-05-25T11:39:07.863Z,22.20
2019-05-25T11:41:36.391Z,21.60
2019-05-25T11:44:05.388Z,21.20
2019-05-25T11:46:33.975Z,20.90
2019-05-25T11:49:03.849Z,20.60
2019-05-25T11:51:32.478Z,20.40
2019-05-25T11:54:01.157Z,20.10
2019-05-25T11:56:29.771Z,19.90
2019-05-25T11:58:58.370Z,19.70
2019-05-25T12:01:26.929Z,19.50
2019-05-25T12:03:55.599Z,19.30
2019-05-25T12:06:26.944Z,19.20
2019-05-25T12:08:57.138Z,19.10
2019-05-25T12:11:45.106Z,18.90
2019-05-25T12:14:14.508Z,18.60
2019-05-25T12:16:43.199Z,18.50
2019-05-25T12:19:14.859Z,18.20
2019-05-25T12:21:42.185Z,18.10
2019-05-25T12:24:10.825Z,18.10
2019-05-25T12:26:58.731Z,18.20
2019-05-25T12:29:27.451Z,18.30
2019-05-25T12:32:04.226Z,18.40
2019-05-25T12:34:26.401Z,18.50
2019-05-25T12:37:14.371Z,18.40
2019-05-25T12:39:43.155Z,18.40
2019-05-25T12:42:11.820Z,18.50
2019-05-25T12:44:40.359Z,18.50
2019-05-25T12:47:09.221Z,18.60
2019-05-25T12:49:50.047Z,18.80
2019-05-25T12:52:08.194Z,18.90
2019-05-25T12:54:36.793Z,19.00
2019-05-25T12:57:05.467Z,19.10
2019-05-25T12:59:34.117Z,19.10
2019-05-25T13:02:02.715Z,19.30
2019-05-25T13:04:31.339Z,19.40
2019-05-25T13:07:00.002Z,19.50
2019-05-25T13:09:28.661Z,19.60
2019-05-25T13:11:57.245Z,19.70
2019-05-25T13:14:26.146Z,19.70
2019-05-25T13:16:54.876Z,19.80
2019-05-25T13:19:23.712Z,19.90
2019-05-25T13:21:52.332Z,19.90
2019-05-25T13:24:21.391Z,20.00
2019-05-25T13:26:50.026Z,20.10
2019-05-25T13:29:18.807Z,20.10
2019-05-25T13:31:47.480Z,20.20
2019-05-25T13:34:16.257Z,20.20
2019-05-25T13:36:44.928Z,20.30
2019-05-25T13:39:13.631Z,20.30
2019-05-25T13:41:43.943Z,20.30
2019-05-25T13:44:12.497Z,20.30
2019-05-25T13:46:41.134Z,20.30
2019-05-25T13:49:09.742Z,20.30
2019-05-25T13:51:38.407Z,20.20
2019-05-25T13:54:06.964Z,20.20
2019-05-25T13:56:35.703Z,20.20
2019-05-25T13:59:04.556Z,20.10
2019-05-25T14:01:33.187Z,20.00
2019-05-25T14:04:02.083Z,19.90
2019-05-25T14:06:30.750Z,19.80
2019-05-25T14:08:59.340Z,19.90
2019-05-25T14:11:27.976Z,19.90
2019-05-25T14:13:56.662Z,20.00
2019-05-25T14:16:25.539Z,20.00
2019-05-25T14:18:54.165Z,20.00
2019-05-25T14:21:22.832Z,20.00
2019-05-25T14:23:51.543Z,20.00
2019-05-25T14:26:20.251Z,20.00
2019-05-25T14:28:48.908Z,20.10
2019-05-25T14:31:17.458Z,20.10
2019-05-25T14:33:46.336Z,20.00
2019-05-25T14:36:23.974Z,19.80
2019-05-25T14:38:52.641Z,19.30
2019-05-25T14:41:21.316Z,18.90
2019-05-25T14:43:49.937Z,18.70
2019-05-25T14:46:27.301Z,18.60
2019-05-25T14:48:48.786Z,18.50
2019-05-25T14:51:17.441Z,18.40
2019-05-25T14:53:46.038Z,18.40
2019-05-25T14:56:14.665Z,18.40
2019-05-25T14:58:43.543Z,18.40
2019-05-25T15:01:12.087Z,18.30
2019-05-25T15:03:41.010Z,18.10
2019-05-25T15:06:10.399Z,17.90
2019-05-25T15:08:39.171Z,17.80
2019-05-25T15:11:07.957Z,17.60
2019-05-25T15:13:36.586Z,17.50
2019-05-25T15:16:05.301Z,17.30
2019-05-25T15:18:36.968Z,17.10
2019-05-25T15:21:05.823Z,16.90
2019-05-25T15:23:40.490Z,16.70
2019-05-25T15:26:09.177Z,16.70
2019-05-25T15:28:38.016Z,16.70
2019-05-25T15:31:07.698Z,16.80
2019-05-25T15:33:36.483Z,16.70
2019-05-25T15:36:05.763Z,16.60
2019-05-25T15:38:34.317Z,16.60
2019-05-25T15:41:02.848Z,16.60
2019-05-25T15:43:31.439Z,16.60
2019-05-25T15:46:00.099Z,16.60
2019-05-25T15:48:28.782Z,16.60
2019-05-25T15:50:57.441Z,16.60
2019-05-25T15:53:26.075Z,16.60
2019-05-25T15:55:54.662Z,16.80
2019-05-25T15:58:23.376Z,16.90
2019-05-25T16:00:52.777Z,16.80
2019-05-25T16:03:21.437Z,16.80
2019-05-25T16:05:50.537Z,16.90
2019-05-25T16:08:20.444Z,16.90
2019-05-25T16:10:49.543Z,16.90
2019-05-25T16:13:18.516Z,17.00
2019-05-25T16:15:47.226Z,17.00
2019-05-25T16:18:15.890Z,17.00
2019-05-25T16:20:44.502Z,16.20
2019-05-25T16:23:13.268Z,16.80
2019-05-25T16:25:42.411Z,16.90
2019-05-25T16:28:11.027Z,16.90
2019-05-25T16:30:39.590Z,16.80
2019-05-25T16:33:12.545Z,16.60
2019-05-25T16:35:38.582Z,16.50
2019-05-25T16:38:07.278Z,16.50
2019-05-25T16:40:36.244Z,16.70
2019-05-25T16:43:05.209Z,16.80
2019-05-25T16:45:33.854Z,17.00
2019-05-25T16:48:02.424Z,17.00
2019-05-25T16:50:30.987Z,16.90
2019-05-25T16:52:59.955Z,16.90
2019-05-25T16:55:28.543Z,16.90
2019-05-25T16:57:57.174Z,16.90
2019-05-25T17:00:29.885Z,17.00
2019-05-25T17:02:59.399Z,17.00
2019-05-25T17:05:28.587Z,17.10
2019-05-25T17:07:57.762Z,17.00
2019-05-25T17:10:27.184Z,17.10
2019-05-25T17:12:55.862Z,17.00
2019-05-25T17:15:24.714Z,17.10
2019-05-25T17:17:53.900Z,17.10
2019-05-25T17:20:22.632Z,17.20
2019-05-25T17:22:51.260Z,17.10
2019-05-25T17:25:20.246Z,17.10
2019-05-25T17:27:49.109Z,17.10
2019-05-25T17:30:20.749Z,17.20
2019-05-25T17:32:49.338Z,17.20
2019-05-25T17:35:17.891Z,17.20
2019-05-25T17:37:46.539Z,17.40
2019-05-25T17:40:15.554Z,17.40
2019-05-25T17:42:44.143Z,17.40
2019-05-25T17:45:13.091Z,17.20
2019-05-25T17:47:43.374Z,17.00
2019-05-25T17:50:13.726Z,17.00
2019-05-25T17:52:42.314Z,17.00
2019-05-25T17:55:11.297Z,17.10
2019-05-25T17:57:39.970Z,17.20
2019-05-25T18:00:10.616Z,17.20
2019-05-25T18:02:39.529Z,17.30
2019-05-25T18:05:09.839Z,17.40
2019-05-25T18:07:39.615Z,17.40
2019-05-25T18:10:09.304Z,17.50
2019-05-25T18:12:37.994Z,17.50
2019-05-25T18:15:11.295Z,17.50
2019-05-25T18:17:39.948Z,17.50
2019-05-25T18:20:10.581Z,17.50
2019-05-25T18:22:39.237Z,17.50
2019-05-25T18:25:07.985Z,17.60
2019-05-25T18:27:36.639Z,17.50
2019-05-25T18:30:11.112Z,17.60
2019-05-25T18:32:39.912Z,17.50
2019-05-25T18:35:09.181Z,17.60
2019-05-25T18:37:37.887Z,17.60
2019-05-25T18:40:08.214Z,17.60
2019-05-25T18:42:37.158Z,17.50
2019-05-25T18:45:07.819Z,17.60
2019-05-25T18:47:36.898Z,17.60
2019-05-25T18:50:08.430Z,17.50
2019-05-25T18:52:37.085Z,17.40
2019-05-25T18:55:08.094Z,17.50
2019-05-25T18:57:36.708Z,17.60
2019-05-25T19:00:11.450Z,17.60
2019-05-25T19:02:40.085Z,17.60
2019-05-25T19:05:09.623Z,17.50
2019-05-25T19:07:38.498Z,17.50
2019-05-25T19:10:10.679Z,17.40
2019-05-25T19:12:39.349Z,17.40
2019-05-25T19:15:09.263Z,17.50
2019-05-25T19:17:37.970Z,17.50
2019-05-25T19:20:08.039Z,17.50
2019-05-25T19:22:37.035Z,17.50
2019-05-25T19:25:08.337Z,17.50
2019-05-25T19:27:37.029Z,17.50
2019-05-25T19:30:10.379Z,17.50
2019-05-25T19:32:38.937Z,17.50
2019-05-25T19:35:09.145Z,17.50
2019-05-25T19:37:41.860Z,17.50
2019-05-25T19:40:09.684Z,17.50
2019-05-25T19:42:38.341Z,17.50
2019-05-25T19:45:12.076Z,17.50
2019-05-25T19:47:40.646Z,17.50
2019-05-25T19:50:10.239Z,17.40
2019-05-25T19:52:39.009Z,17.40
2019-05-25T19:55:08.507Z,17.40
2019-05-25T19:57:38.751Z,17.50
2019-05-25T20:00:08.431Z,17.40
2019-05-25T20:02:37.109Z,17.40
2019-05-25T20:05:16.452Z,17.40
2019-05-25T20:07:37.901Z,17.30
2019-05-25T20:10:07.438Z,17.20
2019-05-25T20:12:36.145Z,17.10
2019-05-25T20:15:07.021Z,17.10
2019-05-25T20:17:35.910Z,17.10
2019-05-25T20:20:06.362Z,17.00
2019-05-25T20:22:35.018Z,17.00
2019-05-25T20:25:07.176Z,17.00
2019-05-25T20:27:35.919Z,17.00
2019-05-25T20:30:09.146Z,17.00
2019-05-25T20:32:39.370Z,16.90
2019-05-25T20:35:08.773Z,16.90
2019-05-25T20:37:37.607Z,16.90
2019-05-25T20:40:08.370Z,16.90
2019-05-25T20:42:37.287Z,16.90
2019-05-25T20:45:11.072Z,17.00
2019-05-25T20:47:39.704Z,17.00
2019-05-25T20:50:09.102Z,17.00
2019-05-25T20:52:37.697Z,17.10
2019-05-25T20:55:10.478Z,17.10
2019-05-25T20:57:39.154Z,17.00
2019-05-25T21:00:09.473Z,17.10
2019-05-25T21:02:38.144Z,17.00
2019-05-25T21:05:07.981Z,16.90
2019-05-25T21:07:36.770Z,16.80
2019-05-25T21:10:08.690Z,16.80
2019-05-25T21:12:37.345Z,16.80
2019-05-25T21:15:08.203Z,16.60
2019-05-25T21:17:36.784Z,16.60
2019-05-25T21:20:06.574Z,16.50
2019-05-25T21:22:35.942Z,16.50
2019-05-25T21:25:07.055Z,16.50
2019-05-25T21:27:35.759Z,16.40
2019-05-25T21:30:06.190Z,16.40
2019-05-25T21:32:34.773Z,16.40
2019-05-25T21:35:03.854Z,16.30
2019-05-25T21:37:32.581Z,16.30
2019-05-25T21:40:01.163Z,16.30
2019-05-25T21:42:29.742Z,16.20
2019-05-25T21:44:58.343Z,16.20
2019-05-25T21:47:26.875Z,16.10
2019-05-25T21:49:55.526Z,16.10
2019-05-25T21:52:24.182Z,16.10
2019-05-25T21:54:52.804Z,16.10
2019-05-25T21:57:21.363Z,16.10
2019-05-25T21:59:49.965Z,16.10
2019-05-25T22:02:18.815Z,16.10
2019-05-25T22:04:47.374Z,16.20
2019-05-25T22:07:15.971Z,16.20
2019-05-25T22:09:44.587Z,16.20
2019-05-25T22:12:13.322Z,16.10
2019-05-25T22:14:41.950Z,16.00
2019-05-25T22:17:10.595Z,16.00
2019-05-25T22:19:39.149Z,15.90
2019-05-25T22:22:07.916Z,15.80
2019-05-25T22:24:36.720Z,15.80
2019-05-25T22:27:08.086Z,15.80
2019-05-25T22:29:36.710Z,15.90
2019-05-25T22:32:05.430Z,16.00
2019-05-25T22:34:34.106Z,16.00
2019-05-25T22:37:02.663Z,15.90
2019-05-25T22:39:31.295Z,15.90
2019-05-25T22:41:59.896Z,15.90
2019-05-25T22:44:28.471Z,15.80
2019-05-25T22:46:57.128Z,15.80
2019-05-25T22:49:25.779Z,15.80
2019-05-25T22:51:54.358Z,15.90
2019-05-25T22:54:22.954Z,15.90
2019-05-25T22:56:51.524Z,15.80
2019-05-25T22:59:20.358Z,15.90
2019-05-25T23:01:49.102Z,15.90
2019-05-25T23:04:17.731Z,15.90
2019-05-25T23:06:57.237Z,16.00
2019-05-25T23:09:16.678Z,16.00
2019-05-25T23:11:45.246Z,16.00
2019-05-25T23:14:13.864Z,16.00
2019-05-25T23:16:42.484Z,16.00
2019-05-25T23:19:11.046Z,16.00
2019-05-25T23:21:39.656Z,15.90
2019-05-25T23:24:08.338Z,15.90
2019-05-25T23:26:37.094Z,15.90
2019-05-25T23:29:05.933Z,15.90
2019-05-25T23:31:34.595Z,15.90
2019-05-25T23:34:03.268Z,16.00
2019-05-25T23:36:31.921Z,16.00
2019-05-25T23:39:00.574Z,15.90
2019-05-25T23:41:29.159Z,15.80
2019-05-25T23:43:59.962Z,15.80
2019-05-25T23:46:28.053Z,15.90
2019-05-25T23:48:56.614Z,15.90
2019-05-25T23:51:25.260Z,15.90
2019-05-25T23:53:53.819Z,15.90
2019-05-25T23:56:22.391Z,15.90
2019-05-25T23:58:50.974Z,15.90
